createdAt,value
2017-12-24T00:02:20.043Z,0.90
2017-12-24T00:05:09.604Z,1.00
2017-12-24T00:07:47.188Z,1.20
2017-12-24T00:10:29.817Z,1.20
2017-12-24T00:13:09.909Z,1.20
2017-12-24T00:24:42.666Z,1.20
2017-12-24T00:27:27.175Z,1.00
2017-12-24T00:30:05.383Z,1.10
2017-12-24T00:32:44.857Z,1.00
2017-12-24T00:35:21.129Z,0.80
2017-12-24T00:38:04.384Z,1.00
2017-12-24T00:40:41.501Z,1.10
2017-12-24T00:43:21.385Z,1.20
2017-12-24T00:45:58.322Z,1.20
2017-12-24T00:48:39.263Z,1.20
2017-12-24T00:51:27.258Z,1.20
2017-12-24T00:54:07.859Z,1.30
2017-12-24T00:56:48.926Z,1.10
2017-12-24T00:59:32.997Z,1.10
2017-12-24T01:04:53.888Z,1.20
2017-12-24T01:07:30.342Z,1.20
2017-12-24T01:10:06.945Z,1.10
2017-12-24T01:15:38.756Z,1.00
2017-12-24T01:18:27.279Z,1.00
2017-12-24T01:21:04.319Z,1.10
2017-12-24T01:23:39.941Z,0.80
2017-12-24T01:26:21.959Z,0.70
2017-12-24T01:29:00.795Z,0.70
2017-12-24T01:31:36.857Z,0.70
2017-12-24T01:34:21.428Z,0.00
2017-12-24T01:37:00.723Z,-0.10
2017-12-24T01:39:42.975Z,-0.60
2017-12-24T01:42:23.466Z,-0.50
2017-12-24T01:45:03.660Z,-0.20
2017-12-24T01:47:55.416Z,-0.30
2017-12-24T01:50:30.408Z,0.00
2017-12-24T01:53:14.150Z,0.10
2017-12-24T01:55:53.268Z,-0.10
2017-12-24T01:58:32.516Z,-0.10
2017-12-24T02:01:06.013Z,0.10
2017-12-24T02:17:23.061Z,-0.20
2017-12-24T02:19:57.296Z,-0.10
2017-12-24T02:22:43.840Z,-0.10
2017-12-24T02:25:18.464Z,-0.10
2017-12-24T02:28:01.152Z,0.00
2017-12-24T02:30:37.606Z,0.00
2017-12-24T02:33:16.886Z,0.00
2017-12-24T02:35:55.372Z,0.10
2017-12-24T02:38:31.591Z,0.20
2017-12-24T02:41:18.016Z,0.20
2017-12-24T02:43:53.600Z,0.20
2017-12-24T02:46:35.007Z,0.20
2017-12-24T02:49:13.812Z,0.30
2017-12-24T02:51:49.312Z,0.30
2017-12-24T02:54:28.529Z,0.30
2017-12-24T02:57:09.404Z,0.30
2017-12-24T02:59:48.989Z,0.30
2017-12-24T03:02:33.348Z,0.20
2017-12-24T03:05:14.811Z,0.20
2017-12-24T03:10:44.880Z,0.20
2017-12-24T03:13:19.732Z,0.30
2017-12-24T03:16:01.630Z,0.50
2017-12-24T03:18:44.120Z,0.50
2017-12-24T03:21:29.747Z,0.50
2017-12-24T03:24:09.463Z,0.60
2017-12-24T03:27:06.121Z,0.60
2017-12-24T03:29:46.276Z,0.60
2017-12-24T03:32:20.966Z,0.50
2017-12-24T03:34:56.543Z,0.50
2017-12-24T03:37:31.832Z,0.50
2017-12-24T03:40:12.097Z,0.40
2017-12-24T03:42:54.084Z,0.30
2017-12-24T03:48:36.289Z,0.30
2017-12-24T03:51:15.847Z,0.20
2017-12-24T03:53:59.936Z,0.20
2017-12-24T03:56:42.901Z,0.20
2017-12-24T03:59:25.386Z,0.30
2017-12-24T04:02:14.528Z,0.20
2017-12-24T04:04:53.480Z,0.00
2017-12-24T04:07:35.379Z,0.00
2017-12-24T04:13:01.954Z,0.00
2017-12-24T04:15:44.523Z,-0.20
2017-12-24T04:18:42.746Z,-0.50
2017-12-24T04:21:16.637Z,-0.50
2017-12-24T04:23:53.047Z,-0.50
2017-12-24T04:26:29.819Z,-0.40
2017-12-24T04:29:13.009Z,-0.40
2017-12-24T04:31:53.133Z,-0.40
2017-12-24T04:34:39.092Z,-0.40
2017-12-24T04:37:16.413Z,-0.40
2017-12-24T04:40:01.531Z,-0.30
2017-12-24T04:42:46.359Z,-0.40
2017-12-24T04:45:25.310Z,-0.40
2017-12-24T04:48:00.993Z,-0.40
2017-12-24T04:50:47.854Z,-0.40
2017-12-24T04:53:26.369Z,-0.50
2017-12-24T04:56:10.585Z,-1.10
2017-12-24T04:58:53.839Z,-1.40
2017-12-24T05:01:33.212Z,-1.30
2017-12-24T05:04:22.655Z,-1.20
2017-12-24T05:07:07.741Z,-1.20
2017-12-24T05:09:43.916Z,-1.00
2017-12-24T05:12:26.508Z,-0.90
2017-12-24T05:15:11.727Z,-0.70
2017-12-24T05:20:37.273Z,-0.70
2017-12-24T05:23:20.373Z,-0.60
2017-12-24T05:25:56.769Z,-1.20
2017-12-24T05:28:34.556Z,-1.20
2017-12-24T05:31:12.171Z,-1.50
2017-12-24T05:33:47.688Z,-1.20
2017-12-24T05:39:14.522Z,-0.90
2017-12-24T05:42:01.925Z,-1.30
2017-12-24T05:44:38.822Z,-1.40
2017-12-24T05:47:14.700Z,-1.60
2017-12-24T05:49:54.141Z,-1.60
2017-12-24T05:52:41.898Z,-1.40
2017-12-24T05:55:17.959Z,-1.20
2017-12-24T20:48:41.442Z,-0.70
2017-12-24T20:51:15.258Z,-0.60
2017-12-24T20:53:48.923Z,-0.60
2017-12-24T20:56:22.668Z,-0.60
2017-12-24T20:58:56.341Z,-0.50
2017-12-24T21:01:29.964Z,-0.50
2017-12-24T21:04:03.543Z,-0.50
2017-12-24T21:06:37.203Z,-0.60
2017-12-24T21:09:10.854Z,-0.60
2017-12-24T21:11:45.285Z,-0.50
2017-12-24T21:14:29.106Z,-0.50
2017-12-24T21:17:03.813Z,-0.50
2017-12-24T21:19:37.443Z,-0.70
2017-12-24T21:22:11.060Z,-0.70
2017-12-24T21:24:44.731Z,-0.70
2017-12-24T21:27:18.437Z,-0.60
2017-12-24T21:29:52.030Z,-0.70
2017-12-24T21:32:25.588Z,-0.80
2017-12-24T21:34:59.197Z,-0.70
2017-12-24T21:37:32.790Z,-0.80
2017-12-24T21:40:06.513Z,-0.70
2017-12-24T21:42:40.147Z,-0.70
2017-12-24T21:45:13.880Z,-0.80
2017-12-24T21:47:47.510Z,-0.90
2017-12-24T21:50:21.225Z,-0.90
2017-12-24T21:52:56.970Z,-0.80
2017-12-24T21:55:30.919Z,-0.80
2017-12-24T21:58:05.396Z,-0.80
2017-12-24T22:00:39.252Z,-0.80
2017-12-24T22:03:12.812Z,-0.80
2017-12-24T22:05:46.461Z,-0.80
2017-12-24T22:08:24.573Z,-0.80
2017-12-24T22:11:06.076Z,-0.90
2017-12-24T22:13:40.649Z,-0.90
2017-12-24T22:16:16.094Z,-0.90
2017-12-24T22:19:00.496Z,-1.00
2017-12-24T22:21:38.065Z,-1.00
2017-12-24T22:24:15.683Z,-1.10
2017-12-24T22:26:52.925Z,-1.00
2017-12-24T22:29:27.344Z,-1.10
2017-12-24T22:32:01.022Z,-1.10
2017-12-24T22:34:35.413Z,-1.20
2017-12-24T22:37:08.998Z,-1.20
2017-12-24T22:39:42.625Z,-1.30
2017-12-24T22:42:16.510Z,-1.30
2017-12-24T22:44:50.054Z,-1.40
2017-12-24T22:47:23.671Z,-1.40
2017-12-24T22:49:58.414Z,-1.30
2017-12-24T22:52:32.090Z,-1.30
2017-12-24T22:55:05.747Z,-1.30
2017-12-24T22:57:53.368Z,-1.30
2017-12-24T23:00:30.280Z,-1.30
2017-12-24T23:03:05.834Z,-1.20
2017-12-24T23:05:41.511Z,-1.20
2017-12-24T23:08:16.961Z,-1.10
2017-12-24T23:10:50.931Z,-1.00
2017-12-24T23:13:25.488Z,-1.00
2017-12-24T23:16:01.707Z,-1.00
2017-12-24T23:18:35.442Z,-1.00
2017-12-24T23:21:09.301Z,-1.00
2017-12-24T23:23:44.134Z,-1.00
2017-12-24T23:26:18.165Z,-1.20
2017-12-24T23:28:53.585Z,-1.30
2017-12-24T23:31:27.408Z,-1.30
2017-12-24T23:34:01.742Z,-1.30
2017-12-24T23:36:36.086Z,-1.30
2017-12-24T23:39:10.623Z,-1.30
2017-12-24T23:41:45.149Z,-1.20
2017-12-24T23:44:18.961Z,-1.20
2017-12-24T23:46:53.733Z,-1.00
2017-12-24T23:49:27.505Z,-1.10
2017-12-24T23:52:01.380Z,-1.00
2017-12-24T23:54:36.437Z,-1.10
2017-12-24T23:57:10.455Z,-1.10
2017-12-24T23:59:44.172Z,-1.20
